sensor_id;sensor_type;location;lat;lon;timestamp;pressure;altitude;pressure_sealevel;temperature;humidity
36972;BME280;40554;52.122;20.678;2022-11-20T00:00:43;100331.78;;;-4.42;100.00
36972;BME280;40554;52.122;20.678;2022-11-20T00:03:00;100330.11;;;-4.45;100.00
36972;BME280;40554;52.122;20.678;2022-11-20T00:05:16;100331.40;;;-4.48;100.00
36972;BME280;40554;52.122;20.678;2022-11-20T00:07:33;100334.43;;;-4.49;100.00
36972;BME280;40554;52.122;20.678;2022-11-20T00:09:50;100336.16;;;-4.49;100.00
36972;BME280;40554;52.122;20.678;2022-11-20T00:12:06;100337.05;;;-4.50;100.00
36972;BME280;40554;52.122;20.678;2022-11-20T00:14:22;100342.64;;;-4.49;100.00
36972;BME280;40554;52.122;20.678;2022-11-20T00:16:39;100341.34;;;-4.49;100.00
36972;BME280;40554;52.122;20.678;2022-11-20T00:18:55;100340.46;;;-4.48;100.00
36972;BME280;40554;52.122;20.678;2022-11-20T00:21:20;100337.88;;;-4.47;100.00
36972;BME280;40554;52.122;20.678;2022-11-20T00:23:38;100342.61;;;-4.46;100.00
36972;BME280;40554;52.122;20.678;2022-11-20T00:25:54;100340.47;;;-4.45;100.00
36972;BME280;40554;52.122;20.678;2022-11-20T00:28:11;100327.05;;;-4.43;100.00
36972;BME280;40554;52.122;20.678;2022-11-20T00:30:27;100331.38;;;-4.42;100.00
36972;BME280;40554;52.122;20.678;2022-11-20T00:32:43;100330.08;;;-4.42;100.00
36972;BME280;40554;52.122;20.678;2022-11-20T00:35:00;100329.61;;;-4.40;100.00
36972;BME280;40554;52.122;20.678;2022-11-20T00:37:16;100326.58;;;-4.38;100.00
36972;BME280;40554;52.122;20.678;2022-11-20T00:39:33;100327.88;;;-4.36;100.00
36972;BME280;40554;52.122;20.678;2022-11-20T00:41:49;100325.70;;;-4.34;100.00
36972;BME280;40554;52.122;20.678;2022-11-20T00:44:05;100321.34;;;-4.32;100.00
36972;BME280;40554;52.122;20.678;2022-11-20T00:46:24;100317.88;;;-4.29;100.00
36972;BME280;40554;52.122;20.678;2022-11-20T00:48:42;100321.34;;;-4.29;100.00
36972;BME280;40554;52.122;20.678;2022-11-20T00:50:59;100313.13;;;-4.30;100.00
36972;BME280;40554;52.122;20.678;2022-11-20T00:53:16;100308.81;;;-4.29;100.00
36972;BME280;40554;52.122;20.678;2022-11-20T00:55:32;100306.22;;;-4.28;100.00
36972;BME280;40554;52.122;20.678;2022-11-20T00:57:48;100308.36;;;-4.27;100.00
36972;BME280;40554;52.122;20.678;2022-11-20T01:00:06;100305.33;;;-4.25;100.00
36972;BME280;40554;52.122;20.678;2022-11-20T01:02:23;100300.12;;;-4.24;100.00
36972;BME280;40554;52.122;20.678;2022-11-20T01:04:39;100300.56;;;-4.22;100.00
36972;BME280;40554;52.122;20.678;2022-11-20T01:06:55;100303.16;;;-4.22;100.00
36972;BME280;40554;52.122;20.678;2022-11-20T01:09:13;100296.23;;;-4.22;100.00
36972;BME280;40554;52.122;20.678;2022-11-20T01:11:33;100293.65;;;-4.20;100.00
36972;BME280;40554;52.122;20.678;2022-11-20T01:13:52;100290.17;;;-4.19;100.00
36972;BME280;40554;52.122;20.678;2022-11-20T01:16:21;100287.99;;;-4.18;100.00
36972;BME280;40554;52.122;20.678;2022-11-20T01:18:42;100288.44;;;-4.17;100.00
36972;BME280;40554;52.122;20.678;2022-11-20T01:21:08;100282.81;;;-4.17;100.00
36972;BME280;40554;52.122;20.678;2022-11-20T01:23:23;100283.67;;;-4.16;100.00
36972;BME280;40554;52.122;20.678;2022-11-20T01:25:39;100281.92;;;-4.14;100.00
36972;BME280;40554;52.122;20.678;2022-11-20T01:27:56;100279.34;;;-4.14;100.00
36972;BME280;40554;52.122;20.678;2022-11-20T01:30:13;100281.48;;;-4.12;100.00
36972;BME280;40554;52.122;20.678;2022-11-20T01:32:29;100276.71;;;-4.11;100.00
36972;BME280;40554;52.122;20.678;2022-11-20T01:34:45;100275.83;;;-4.10;100.00
36972;BME280;40554;52.122;20.678;2022-11-20T01:37:02;100276.67;;;-4.08;100.00
36972;BME280;40554;52.122;20.678;2022-11-20T01:39:21;100280.97;;;-4.06;100.00
36972;BME280;40554;52.122;20.678;2022-11-20T01:41:39;100281.37;;;-4.05;100.00
36972;BME280;40554;52.122;20.678;2022-11-20T01:44:17;100283.97;;;-4.03;100.00
36972;BME280;40554;52.122;20.678;2022-11-20T01:46:49;100288.26;;;-4.01;100.00
36972;BME280;40554;52.122;20.678;2022-11-20T01:49:15;100287.38;;;-3.98;100.00
36972;BME280;40554;52.122;20.678;2022-11-20T01:51:51;100288.22;;;-3.96;100.00
36972;BME280;40554;52.122;20.678;2022-11-20T01:54:12;100289.04;;;-3.94;100.00
36972;BME280;40554;52.122;20.678;2022-11-20T01:56:32;100290.33;;;-3.92;100.00
36972;BME280;40554;52.122;20.678;2022-11-20T01:58:54;100290.33;;;-3.91;100.00
36972;BME280;40554;52.122;20.678;2022-11-20T02:01:13;100292.03;;;-3.90;100.00
36972;BME280;40554;52.122;20.678;2022-11-20T02:03:30;100289.00;;;-3.88;100.00
36972;BME280;40554;52.122;20.678;2022-11-20T02:08:41;100295.00;;;-3.86;100.00
36972;BME280;40554;52.122;20.678;2022-11-20T02:10:57;100286.37;;;-3.85;100.00
36972;BME280;40554;52.122;20.678;2022-11-20T02:13:14;100290.66;;;-3.84;100.00
36972;BME280;40554;52.122;20.678;2022-11-20T02:15:49;100286.33;;;-3.82;100.00
36972;BME280;40554;52.122;20.678;2022-11-20T02:18:06;100288.92;;;-3.82;100.00
36972;BME280;40554;52.122;20.678;2022-11-20T02:20:23;100285.00;;;-3.80;100.00
36972;BME280;40554;52.122;20.678;2022-11-20T02:23:03;100282.41;;;-3.79;100.00
36972;BME280;40554;52.122;20.678;2022-11-20T02:25:24;100276.33;;;-3.77;100.00
36972;BME280;40554;52.122;20.678;2022-11-20T02:27:41;100275.04;;;-3.77;100.00
36972;BME280;40554;52.122;20.678;2022-11-20T02:30:00;100277.63;;;-3.76;100.00
36972;BME280;40554;52.122;20.678;2022-11-20T02:32:25;100275.89;;;-3.75;100.00
36972;BME280;40554;52.122;20.678;2022-11-20T02:34:45;100275.92;;;-3.77;100.00
36972;BME280;40554;52.122;20.678;2022-11-20T02:37:02;100281.52;;;-3.76;100.00
36972;BME280;40554;52.122;20.678;2022-11-20T02:39:19;100272.45;;;-3.77;100.00
36972;BME280;40554;52.122;20.678;2022-11-20T02:41:37;100265.12;;;-3.78;100.00
36972;BME280;40554;52.122;20.678;2022-11-20T02:43:54;100270.74;;;-3.79;100.00
36972;BME280;40554;52.122;20.678;2022-11-20T02:46:11;100268.16;;;-3.79;100.00
36972;BME280;40554;52.122;20.678;2022-11-20T02:48:27;100264.27;;;-3.79;100.00
36972;BME280;40554;52.122;20.678;2022-11-20T02:50:43;100267.70;;;-3.76;100.00
36972;BME280;40554;52.122;20.678;2022-11-20T02:53:00;100269.00;;;-3.76;100.00
36972;BME280;40554;52.122;20.678;2022-11-20T02:55:16;100269.00;;;-3.76;100.00
36972;BME280;40554;52.122;20.678;2022-11-20T02:57:32;100267.26;;;-3.74;100.00
36972;BME280;40554;52.122;20.678;2022-11-20T02:59:49;100266.33;;;-3.72;100.00
36972;BME280;40554;52.122;20.678;2022-11-20T03:02:05;100257.27;;;-3.72;100.00
36972;BME280;40554;52.122;20.678;2022-11-20T03:04:22;100256.00;;;-3.73;100.00
36972;BME280;40554;52.122;20.678;2022-11-20T03:06:38;100256.05;;;-3.76;100.00
36972;BME280;40554;52.122;20.678;2022-11-20T03:08:55;100260.38;;;-3.80;100.00
36972;BME280;40554;52.122;20.678;2022-11-20T03:11:11;100258.72;;;-3.86;100.00
36972;BME280;40554;52.122;20.678;2022-11-20T03:13:27;100255.31;;;-3.89;100.00
36972;BME280;40554;52.122;20.678;2022-11-20T03:15:44;100252.77;;;-3.94;100.00
36972;BME280;40554;52.122;20.678;2022-11-20T03:18:00;100256.28;;;-3.98;100.00
36972;BME280;40554;52.122;20.678;2022-11-20T03:20:16;100249.41;;;-4.02;100.00
36972;BME280;40554;52.122;20.678;2022-11-20T03:22:32;100250.77;;;-4.07;100.00
36972;BME280;40554;52.122;20.678;2022-11-20T03:24:49;100252.11;;;-4.10;100.00
36972;BME280;40554;52.122;20.678;2022-11-20T03:27:05;100251.26;;;-4.13;100.00
36972;BME280;40554;52.122;20.678;2022-11-20T03:29:22;100252.59;;;-4.15;100.00
36972;BME280;40554;52.122;20.678;2022-11-20T03:31:39;100254.33;;;-4.17;100.00
36972;BME280;40554;52.122;20.678;2022-11-20T03:33:58;100254.77;;;-4.17;100.00
36972;BME280;40554;52.122;20.678;2022-11-20T03:36:16;100254.33;;;-4.17;100.00
36972;BME280;40554;52.122;20.678;2022-11-20T03:38:33;100252.18;;;-4.17;100.00
36972;BME280;40554;52.122;20.678;2022-11-20T03:40:50;100254.73;;;-4.16;100.00
36972;BME280;40554;52.122;20.678;2022-11-20T03:43:06;100256.88;;;-4.15;100.00
36972;BME280;40554;52.122;20.678;2022-11-20T03:45:24;100259.06;;;-4.16;100.00
36972;BME280;40554;52.122;20.678;2022-11-20T03:47:41;100262.95;;;-4.16;100.00
36972;BME280;40554;52.122;20.678;2022-11-20T03:49:58;100256.06;;;-4.17;100.00
36972;BME280;40554;52.122;20.678;2022-11-20T03:52:14;100255.59;;;-4.15;100.00
36972;BME280;40554;52.122;20.678;2022-11-20T03:54:30;100256.47;;;-4.16;100.00
36972;BME280;40554;52.122;20.678;2022-11-20T03:56:46;100256.09;;;-4.20;100.00
36972;BME280;40554;52.122;20.678;2022-11-20T03:59:03;100262.58;;;-4.24;100.00
36972;BME280;40554;52.122;20.678;2022-11-20T04:01:23;100269.94;;;-4.26;100.00
36972;BME280;40554;52.122;20.678;2022-11-20T04:03:41;100264.83;;;-4.31;100.00
36972;BME280;40554;52.122;20.678;2022-11-20T04:06:06;100266.16;;;-4.34;100.00
36972;BME280;40554;52.122;20.678;2022-11-20T04:08:24;100270.07;;;-4.37;100.00
36972;BME280;40554;52.122;20.678;2022-11-20T04:10:40;100269.22;;;-4.39;100.00
36972;BME280;40554;52.122;20.678;2022-11-20T04:12:57;100270.95;;;-4.42;100.00
36972;BME280;40554;52.122;20.678;2022-11-20T04:15:13;100274.87;;;-4.44;100.00
36972;BME280;40554;52.122;20.678;2022-11-20T04:17:29;100270.13;;;-4.44;100.00
36972;BME280;40554;52.122;20.678;2022-11-20T04:19:46;100274.05;;;-4.49;100.00
36972;BME280;40554;52.122;20.678;2022-11-20T04:22:02;100273.23;;;-4.53;100.00
36972;BME280;40554;52.122;20.678;2022-11-20T04:24:19;100273.25;;;-4.57;100.00
36972;BME280;40554;52.122;20.678;2022-11-20T04:26:35;100270.70;;;-4.60;100.00
36972;BME280;40554;52.122;20.678;2022-11-20T04:28:52;100268.98;;;-4.64;100.00
36972;BME280;40554;52.122;20.678;2022-11-20T04:31:14;100269.02;;;-4.68;100.00
36972;BME280;40554;52.122;20.678;2022-11-20T04:33:33;100267.78;;;-4.72;100.00
36972;BME280;40554;52.122;20.678;2022-11-20T04:35:50;100266.08;;;-4.75;100.00
36972;BME280;40554;52.122;20.678;2022-11-20T04:38:07;100263.48;;;-4.78;100.00
36972;BME280;40554;52.122;20.678;2022-11-20T04:40:23;100266.52;;;-4.78;100.00
36972;BME280;40554;52.122;20.678;2022-11-20T04:42:39;100261.80;;;-4.82;100.00
36972;BME280;40554;52.122;20.678;2022-11-20T04:44:56;100260.54;;;-4.85;100.00
36972;BME280;40554;52.122;20.678;2022-11-20T04:47:13;100251.10;;;-4.91;100.00
36972;BME280;40554;52.122;20.678;2022-11-20T04:49:29;100256.70;;;-4.94;100.00
36972;BME280;40554;52.122;20.678;2022-11-20T04:51:47;100252.47;;;-5.01;100.00
36972;BME280;40554;52.122;20.678;2022-11-20T04:54:03;100247.34;;;-5.07;100.00
36972;BME280;40554;52.122;20.678;2022-11-20T04:56:20;100245.20;;;-5.11;100.00
36972;BME280;40554;52.122;20.678;2022-11-20T04:58:37;100252.12;;;-5.15;100.00
36972;BME280;40554;52.122;20.678;2022-11-20T05:00:53;100245.23;;;-5.19;100.00
36972;BME280;40554;52.122;20.678;2022-11-20T05:03:10;100245.27;;;-5.22;100.00
36972;BME280;40554;52.122;20.678;2022-11-20T05:05:26;100240.55;;;-5.25;100.00
36972;BME280;40554;52.122;20.678;2022-11-20T05:07:42;100246.59;;;-5.28;100.00
36972;BME280;40554;52.122;20.678;2022-11-20T05:09:58;100246.19;;;-5.29;100.00
36972;BME280;40554;52.122;20.678;2022-11-20T05:12:15;100244.88;;;-5.32;100.00
36972;BME280;40554;52.122;20.678;2022-11-20T05:14:31;100241.00;;;-5.32;100.00
36972;BME280;40554;52.122;20.678;2022-11-20T05:16:47;100238.42;;;-5.32;100.00
36972;BME280;40554;52.122;20.678;2022-11-20T05:19:04;100238.45;;;-5.33;100.00
36972;BME280;40554;52.122;20.678;2022-11-20T05:21:20;100243.20;;;-5.36;100.00
36972;BME280;40554;52.122;20.678;2022-11-20T05:23:38;100244.94;;;-5.37;100.00
36972;BME280;40554;52.122;20.678;2022-11-20T05:25:56;100238.47;;;-5.37;100.00
36972;BME280;40554;52.122;20.678;2022-11-20T05:28:13;100241.50;;;-5.37;100.00
36972;BME280;40554;52.122;20.678;2022-11-20T05:30:30;100238.91;;;-5.40;100.00
36972;BME280;40554;52.122;20.678;2022-11-20T05:32:47;100237.66;;;-5.46;100.00
36972;BME280;40554;52.122;20.678;2022-11-20T05:35:03;100239.84;;;-5.50;100.00
36972;BME280;40554;52.122;20.678;2022-11-20T05:37:20;100237.69;;;-5.52;100.00
36972;BME280;40554;52.122;20.678;2022-11-20T05:39:36;100242.88;;;-5.55;100.00
36972;BME280;40554;52.122;20.678;2022-11-20T05:41:53;100232.97;;;-5.59;100.00
36972;BME280;40554;52.122;20.678;2022-11-20T05:44:11;100228.70;;;-5.62;100.00
36972;BME280;40554;52.122;20.678;2022-11-20T05:46:28;100226.55;;;-5.64;100.00
36972;BME280;40554;52.122;20.678;2022-11-20T05:48:46;100223.13;;;-5.69;100.00
36972;BME280;40554;52.122;20.678;2022-11-20T05:51:04;100225.73;;;-5.72;100.00
36972;BME280;40554;52.122;20.678;2022-11-20T05:53:21;100218.86;;;-5.74;100.00
36972;BME280;40554;52.122;20.678;2022-11-20T05:55:38;100207.67;;;-5.81;100.00
36972;BME280;40554;52.122;20.678;2022-11-20T05:57:54;100220.61;;;-5.78;100.00
36972;BME280;40554;52.122;20.678;2022-11-20T06:00:12;100214.58;;;-5.80;100.00
36972;BME280;40554;52.122;20.678;2022-11-20T06:02:29;100214.59;;;-5.83;100.00
36972;BME280;40554;52.122;20.678;2022-11-20T06:04:45;100214.61;;;-5.86;100.00
36972;BME280;40554;52.122;20.678;2022-11-20T06:07:04;100216.34;;;-5.88;100.00
36972;BME280;40554;52.122;20.678;2022-11-20T06:09:20;100213.30;;;-5.89;100.00
36972;BME280;40554;52.122;20.678;2022-11-20T06:11:36;100208.58;;;-5.90;100.00
36972;BME280;40554;52.122;20.678;2022-11-20T06:13:53;100215.06;;;-5.91;100.00
36972;BME280;40554;52.122;20.678;2022-11-20T06:16:10;100213.77;;;-5.91;100.00
36972;BME280;40554;52.122;20.678;2022-11-20T06:18:29;100215.52;;;-5.93;100.00
36972;BME280;40554;52.122;20.678;2022-11-20T06:20:47;100213.78;;;-5.94;100.00
36972;BME280;40554;52.122;20.678;2022-11-20T06:23:03;100213.38;;;-5.94;100.00
36972;BME280;40554;52.122;20.678;2022-11-20T06:25:20;100212.94;;;-5.93;100.00
36972;BME280;40554;52.122;20.678;2022-11-20T06:27:36;100215.95;;;-5.95;100.00
36972;BME280;40554;52.122;20.678;2022-11-20T06:29:53;100217.26;;;-5.98;100.00
36972;BME280;40554;52.122;20.678;2022-11-20T06:32:09;100212.53;;;-5.99;100.00
36972;BME280;40554;52.122;20.678;2022-11-20T06:34:25;100211.25;;;-5.99;100.00
36972;BME280;40554;52.122;20.678;2022-11-20T06:36:41;100203.92;;;-5.96;100.00
36972;BME280;40554;52.122;20.678;2022-11-20T06:38:58;100203.91;;;-5.93;100.00
36972;BME280;40554;52.122;20.678;2022-11-20T06:41:17;100192.23;;;-5.92;100.00
36972;BME280;40554;52.122;20.678;2022-11-20T06:43:34;100196.98;;;-5.91;100.00
36972;BME280;40554;52.122;20.678;2022-11-20T06:45:55;100198.69;;;-5.90;100.00
36972;BME280;40554;52.122;20.678;2022-11-20T06:48:12;100199.13;;;-5.91;100.00
36972;BME280;40554;52.122;20.678;2022-11-20T06:50:28;100202.56;;;-5.90;100.00
36972;BME280;40554;52.122;20.678;2022-11-20T06:52:44;100197.81;;;-5.89;100.00
36972;BME280;40554;52.122;20.678;2022-11-20T06:55:01;100193.94;;;-5.89;100.00
36972;BME280;40554;52.122;20.678;2022-11-20T06:57:17;100192.23;;;-5.89;100.00
36972;BME280;40554;52.122;20.678;2022-11-20T06:59:33;100191.80;;;-5.88;100.00
36972;BME280;40554;52.122;20.678;2022-11-20T07:01:50;100187.50;;;-5.86;100.00
36972;BME280;40554;52.122;20.678;2022-11-20T07:04:06;100185.33;;;-5.85;100.00
36972;BME280;40554;52.122;20.678;2022-11-20T07:06:23;100193.94;;;-5.83;100.00
36972;BME280;40554;52.122;20.678;2022-11-20T07:08:39;100195.64;;;-5.82;100.00
36972;BME280;40554;52.122;20.678;2022-11-20T07:11:00;100194.77;;;-5.80;100.00
36972;BME280;40554;52.122;20.678;2022-11-20T07:13:18;100197.36;;;-5.78;100.00
36972;BME280;40554;52.122;20.678;2022-11-20T07:15:34;100195.58;;;-5.73;100.00
36972;BME280;40554;52.122;20.678;2022-11-20T07:17:52;100192.53;;;-5.63;100.00
36972;BME280;40554;52.122;20.678;2022-11-20T07:20:10;100190.23;;;-5.41;100.00
36972;BME280;40554;52.122;20.678;2022-11-20T07:22:26;100196.27;;;-5.37;100.00
36972;BME280;40554;52.122;20.678;2022-11-20T07:24:42;100197.09;;;-5.33;100.00
36972;BME280;40554;52.122;20.678;2022-11-20T07:26:59;100207.41;;;-5.32;100.00
36972;BME280;40554;52.122;20.678;2022-11-20T07:29:15;100206.12;;;-5.30;100.00
36972;BME280;40554;52.122;20.678;2022-11-20T07:31:32;100202.24;;;-5.29;100.00
36972;BME280;40554;52.122;20.678;2022-11-20T07:33:48;100210.39;;;-5.25;100.00
36972;BME280;40554;52.122;20.678;2022-11-20T07:36:05;100209.51;;;-5.22;100.00
36972;BME280;40554;52.122;20.678;2022-11-20T07:38:21;100211.19;;;-5.17;100.00
36972;BME280;40554;52.122;20.678;2022-11-20T07:40:38;100202.09;;;-5.10;100.00
36972;BME280;40554;52.122;20.678;2022-11-20T07:42:55;100201.62;;;-5.05;100.00
36972;BME280;40554;52.122;20.678;2022-11-20T07:45:11;100197.69;;;-4.98;100.00
36972;BME280;40554;52.122;20.678;2022-11-20T07:47:28;100196.75;;;-4.87;100.00
36972;BME280;40554;52.122;20.678;2022-11-20T07:49:44;100184.16;;;-4.79;100.00
36972;BME280;40554;52.122;20.678;2022-11-20T07:52:00;100185.36;;;-4.68;100.00
36972;BME280;40554;52.122;20.678;2022-11-20T07:54:16;100183.97;;;-4.56;100.00
36972;BME280;40554;52.122;20.678;2022-11-20T07:56:33;100181.27;;;-4.45;100.00
36972;BME280;40554;52.122;20.678;2022-11-20T07:58:49;100182.87;;;-4.35;100.00
36972;BME280;40554;52.122;20.678;2022-11-20T08:01:06;100178.45;;;-4.25;100.00
36972;BME280;40554;52.122;20.678;2022-11-20T08:03:23;100185.66;;;-4.15;100.00
36972;BME280;40554;52.122;20.678;2022-11-20T08:05:39;100180.40;;;-4.06;100.00
36972;BME280;40554;52.122;20.678;2022-11-20T08:07:56;100173.84;;;-3.98;100.00
36972;BME280;40554;52.122;20.678;2022-11-20T08:10:14;100172.82;;;-3.88;100.00
36972;BME280;40554;52.122;20.678;2022-11-20T08:12:31;100168.78;;;-3.74;100.00
36972;BME280;40554;52.122;20.678;2022-11-20T08:17:31;100171.34;;;-3.43;100.00
36972;BME280;40554;52.122;20.678;2022-11-20T08:19:47;100168.94;;;-3.26;100.00
36972;BME280;40554;52.122;20.678;2022-11-20T08:22:03;100165.67;;;-3.10;100.00
36972;BME280;40554;52.122;20.678;2022-11-20T08:24:19;100169.78;;;-2.97;100.00
36972;BME280;40554;52.122;20.678;2022-11-20T08:26:37;100170.01;;;-2.85;100.00
36972;BME280;40554;52.122;20.678;2022-11-20T08:28:55;100170.67;;;-2.74;100.00
36972;BME280;40554;52.122;20.678;2022-11-20T08:31:12;100166.58;;;-2.62;100.00
36972;BME280;40554;52.122;20.678;2022-11-20T08:33:28;100155.54;;;-2.49;100.00
36972;BME280;40554;52.122;20.678;2022-11-20T08:35:45;100148.84;;;-2.38;100.00
36972;BME280;40554;52.122;20.678;2022-11-20T08:38:02;100143.00;;;-2.27;100.00
36972;BME280;40554;52.122;20.678;2022-11-20T08:40:19;100143.27;;;-2.20;100.00
36972;BME280;40554;52.122;20.678;2022-11-20T08:42:36;100140.06;;;-2.10;100.00
36972;BME280;40554;52.122;20.678;2022-11-20T08:44:52;100136.34;;;-1.98;100.00
36972;BME280;40554;52.122;20.678;2022-11-20T08:47:08;100129.22;;;-1.89;100.00
36972;BME280;40554;52.122;20.678;2022-11-20T08:49:24;100128.25;;;-1.85;100.00
36972;BME280;40554;52.122;20.678;2022-11-20T08:51:41;100127.22;;;-1.76;100.00
36972;BME280;40554;52.122;20.678;2022-11-20T08:53:58;100123.17;;;-1.70;100.00
36972;BME280;40554;52.122;20.678;2022-11-20T08:56:14;100119.11;;;-1.62;100.00
36972;BME280;40554;52.122;20.678;2022-11-20T08:58:31;100116.81;;;-1.57;100.00
36972;BME280;40554;52.122;20.678;2022-11-20T09:00:47;100115.81;;;-1.51;100.00
36972;BME280;40554;52.122;20.678;2022-11-20T09:03:04;100122.91;;;-1.40;100.00
36972;BME280;40554;52.122;20.678;2022-11-20T09:05:20;100121.84;;;-1.31;100.00
36972;BME280;40554;52.122;20.678;2022-11-20T09:07:36;100122.11;;;-1.24;100.00
36972;BME280;40554;52.122;20.678;2022-11-20T09:09:52;100112.92;;;-1.21;100.00
36972;BME280;40554;52.122;20.678;2022-11-20T09:12:09;100115.16;;;-1.05;100.00
36972;BME280;40554;52.122;20.678;2022-11-20T09:14:25;100113.34;;;-0.69;100.00
36972;BME280;40554;52.122;20.678;2022-11-20T09:16:45;100118.17;;;-0.39;100.00
36972;BME280;40554;52.122;20.678;2022-11-20T09:19:02;100112.73;;;0.15;100.00
36972;BME280;40554;52.122;20.678;2022-11-20T09:21:18;100106.57;;;0.87;100.00
36972;BME280;40554;52.122;20.678;2022-11-20T09:23:35;100107.23;;;1.69;100.00
36972;BME280;40554;52.122;20.678;2022-11-20T09:25:52;100104.31;;;3.00;100.00
36972;BME280;40554;52.122;20.678;2022-11-20T09:28:10;100097.53;;;4.05;100.00
36972;BME280;40554;52.122;20.678;2022-11-20T09:30:28;100093.20;;;5.04;100.00
36972;BME280;40554;52.122;20.678;2022-11-20T09:32:44;100096.94;;;5.68;100.00
36972;BME280;40554;52.122;20.678;2022-11-20T09:35:01;100092.96;;;6.10;100.00
36972;BME280;40554;52.122;20.678;2022-11-20T09:37:18;100090.58;;;6.69;100.00
36972;BME280;40554;52.122;20.678;2022-11-20T09:39:34;100082.43;;;7.41;100.00
36972;BME280;40554;52.122;20.678;2022-11-20T09:42:00;100068.85;;;8.05;100.00
36972;BME280;40554;52.122;20.678;2022-11-20T09:47:23;100066.96;;;7.92;100.00
36972;BME280;40554;52.122;20.678;2022-11-20T09:55:10;100079.94;;;6.48;100.00
36972;BME280;40554;52.122;20.678;2022-11-20T09:57:42;100081.56;;;5.85;100.00
36972;BME280;40554;52.122;20.678;2022-11-20T10:00:00;100078.59;;;5.25;100.00
36972;BME280;40554;52.122;20.678;2022-11-20T10:02:28;100078.27;;;4.79;100.00
36972;BME280;40554;52.122;20.678;2022-11-20T10:05:00;100081.43;;;4.32;100.00
36972;BME280;40554;52.122;20.678;2022-11-20T10:07:23;100075.70;;;4.05;100.00
36972;BME280;40554;52.122;20.678;2022-11-20T10:09:49;100081.78;;;3.86;100.00
36972;BME280;40554;52.122;20.678;2022-11-20T10:22:50;100093.16;;;2.84;100.00
36972;BME280;40554;52.122;20.678;2022-11-20T10:25:39;100089.88;;;2.47;100.00
36972;BME280;40554;52.122;20.678;2022-11-20T10:31:11;100076.25;;;1.93;100.00
36972;BME280;40554;52.122;20.678;2022-11-20T10:33:32;100072.83;;;1.68;100.00
36972;BME280;40554;52.122;20.678;2022-11-20T10:36:07;100080.94;;;1.48;100.00
36972;BME280;40554;52.122;20.678;2022-11-20T10:38:40;100073.94;;;1.37;100.00
36972;BME280;40554;52.122;20.678;2022-11-20T10:41:21;100064.23;;;1.16;100.00
36972;BME280;40554;52.122;20.678;2022-11-20T10:43:41;100067.02;;;0.98;100.00
36972;BME280;40554;52.122;20.678;2022-11-20T10:46:05;100070.91;;;0.86;100.00
36972;BME280;40554;52.122;20.678;2022-11-20T10:48:26;100070.87;;;0.74;100.00
36972;BME280;40554;52.122;20.678;2022-11-20T10:53:48;100069.20;;;0.58;100.00
36972;BME280;40554;52.122;20.678;2022-11-20T11:01:42;100062.16;;;0.34;100.00
36972;BME280;40554;52.122;20.678;2022-11-20T11:03:59;100059.66;;;0.31;100.00
36972;BME280;40554;52.122;20.678;2022-11-20T11:06:40;100062.36;;;0.28;100.00
36972;BME280;40554;52.122;20.678;2022-11-20T11:08:56;100054.64;;;0.25;100.00
36972;BME280;40554;52.122;20.678;2022-11-20T11:11:21;100051.93;;;0.28;100.00
36972;BME280;40554;52.122;20.678;2022-11-20T11:13:39;100049.32;;;0.28;100.00
36972;BME280;40554;52.122;20.678;2022-11-20T11:15:56;100045.41;;;0.28;100.00
36972;BME280;40554;52.122;20.678;2022-11-20T11:18:31;100051.41;;;0.30;100.00
36972;BME280;40554;52.122;20.678;2022-11-20T11:20:51;100044.39;;;0.32;100.00
36972;BME280;40554;52.122;20.678;2022-11-20T11:23:22;100045.20;;;0.34;100.00
36972;BME280;40554;52.122;20.678;2022-11-20T11:25:32;100043.59;;;0.43;100.00
36972;BME280;40554;52.122;20.678;2022-11-20T11:27:51;100042.52;;;0.63;100.00
36972;BME280;40554;52.122;20.678;2022-11-20T11:30:18;100034.91;;;0.96;100.00
36972;BME280;40554;52.122;20.678;2022-11-20T11:32:32;100034.13;;;1.30;100.00
36972;BME280;40554;52.122;20.678;2022-11-20T11:35:05;100028.16;;;1.62;100.00
36972;BME280;40554;52.122;20.678;2022-11-20T11:37:26;100035.38;;;1.91;100.00
36972;BME280;40554;52.122;20.678;2022-11-20T11:39:48;100032.02;;;2.21;100.00
36972;BME280;40554;52.122;20.678;2022-11-20T11:42:05;100026.73;;;2.44;100.00
36972;BME280;40554;52.122;20.678;2022-11-20T11:44:32;100026.03;;;2.61;100.00
36972;BME280;40554;52.122;20.678;2022-11-20T11:49:40;100024.13;;;2.65;100.00
36972;BME280;40554;52.122;20.678;2022-11-20T11:52:20;100017.98;;;2.56;100.00
36972;BME280;40554;52.122;20.678;2022-11-20T11:54:58;100013.89;;;2.49;100.00
36972;BME280;40554;52.122;20.678;2022-11-20T11:57:01;100010.53;;;2.35;100.00
36972;BME280;40554;52.122;20.678;2022-11-20T11:59:33;100008.86;;;2.22;100.00
36972;BME280;40554;52.122;20.678;2022-11-20T12:02:01;100008.73;;;2.15;100.00
36972;BME280;40554;52.122;20.678;2022-11-20T12:09:39;100002.34;;;1.88;100.00
36972;BME280;40554;52.122;20.678;2022-11-20T12:12:22;100007.41;;;1.81;100.00
36972;BME280;40554;52.122;20.678;2022-11-20T12:14:42;99998.50;;;1.75;100.00
36972;BME280;40554;52.122;20.678;2022-11-20T12:17:02;100000.17;;;1.66;100.00
36972;BME280;40554;52.122;20.678;2022-11-20T12:19:19;99997.08;;;1.54;100.00
36972;BME280;40554;52.122;20.678;2022-11-20T12:21:46;99999.42;;;1.50;100.00
36972;BME280;40554;52.122;20.678;2022-11-20T12:27:10;99989.64;;;1.44;100.00
36972;BME280;40554;52.122;20.678;2022-11-20T12:35:04;99981.03;;;1.42;100.00
36972;BME280;40554;52.122;20.678;2022-11-20T12:37:37;99979.84;;;1.39;100.00
36972;BME280;40554;52.122;20.678;2022-11-20T12:39:56;99979.84;;;1.39;100.00
36972;BME280;40554;52.122;20.678;2022-11-20T12:45:42;99972.97;;;1.36;100.00